Time;durP1;ratioP1;P1;durP2;ratioP2;P2;SDS_P1;SDS_P2;PMS_P1;PMS_P2;Temp;Humidity;BMP_temperature;BMP_pressure;BME280_temperature;BME280_humidity;BME280_pressure;Samples;Min_cycle;Max_cycle;Signal;HPM_P1;HPM_P2
2024/01/22 00:02:05;;;;;;;;;;;;;;;;;;53025;1255;1059541;-80
2024/01/22 00:04:32;;;;;;;;;;;;;;;;;;52963;1252;1004642;-80
2024/01/22 00:06:58;;;;;;;;;;;;;;;;;;52914;1251;1038565;-80
2024/01/22 00:09:25;;;;;;;;;;;;;;;;;;52969;1255;1004809;-82
2024/01/22 00:11:52;;;;;;;;;;;;;;;;;;52963;1253;1045144;-81
2024/01/22 00:14:18;;;;;;;;;;;;;;;;;;52944;1251;1004461;-80
2024/01/22 00:16:45;;;;;;;;;;;;;;;;;;52971;1251;1061905;-80
2024/01/22 00:19:11;;;;;;;;;;;;;;;;;;53008;1251;1005058;-81
2024/01/22 00:21:37;;;;;;;;;;;;;;;;;;53062;1251;1057135;-80
2024/01/22 00:24:04;;;;;;;;;;;;;;;;;;53060;1251;1005336;-80
2024/01/22 00:26:30;;;;;;;;;;;;;;;;;;52977;1252;1058971;-80
2024/01/22 00:28:57;;;;;;;;;;;;;;;;;;52931;1251;1005446;-81
2024/01/22 00:31:23;;;;;;;;;;;;;;;;;;53062;1251;1039146;-82
2024/01/22 00:33:50;;;;;;;;;;;;;;;;;;53040;1254;1003791;-79
2024/01/22 00:36:16;;;;;;;;;;;;;;;;;;52987;1251;1046144;-81
2024/01/22 00:38:43;;;;;;;;;;;;;;;;;;53030;1252;1005279;-79
2024/01/22 00:41:09;;;;;;;;;;;;;;;;;;53107;1250;1060945;-81
2024/01/22 00:43:36;;;;;;;;;;;;;;;;;;53047;1251;1005302;-79
2024/01/22 00:46:03;;;;;;;;;;;;;;;;;;52963;1255;1057156;-81
2024/01/22 00:48:29;;;;;;;;;;;;;;;;;;53009;1253;1005105;-81
2024/01/22 00:50:56;;;;;;;;;;;;;;;;;;52996;1252;1057626;-81
2024/01/22 00:53:22;;;;;;;;;;;;;;;;;;52945;1255;1004287;-81
2024/01/22 00:55:49;;;;;;;;;;;;;;;;;;52964;1253;1039653;-80
2024/01/22 00:58:15;;;;;;;;;;;;;;;;;;52939;1253;1005447;-80
2024/01/22 01:00:42;;;;;;;;;;;;;;;;;;53003;1255;1045629;-79
2024/01/22 01:03:08;;;;;;;;;;;;;;;;;;52935;1252;1005403;-80
2024/01/22 01:05:35;;;;;;;;;;;;;;;;;;52890;1252;1061455;-80
2024/01/22 01:08:01;;;;;;;;;;;;;;;;;;53002;1253;1005325;-81
2024/01/22 01:10:28;;;;;;;;;;;;;;;;;;53015;1253;1056425;-79
2024/01/22 01:12:54;;;;;;;;;;;;;;;;;;52967;1253;1005260;-79
2024/01/22 01:15:22;;;;;;;;;;;;;;;;;;53220;1253;1057882;-81
2024/01/22 01:17:49;;;;;;;;;;;;;;;;;;53233;1255;1005206;-80
2024/01/22 01:20:15;;;;;;;;;;;;;;;;;;53271;1251;1005114;-80
2024/01/22 01:22:42;;;;;;;;;;;;;;;;;;53323;1255;1038515;-80
2024/01/22 01:25:09;;;;;;;;;;;;;;;;;;53215;1252;1005229;-80
2024/01/22 01:27:35;;;;;;;;;;;;;;;;;;53201;1251;1045596;-81
2024/01/22 01:30:02;;;;;;;;;;;;;;;;;;53619;1253;1005394;-81
2024/01/22 01:32:29;;;;;;;;;;;;;;;;;;54180;1253;1061115;-81
2024/01/22 01:34:55;;;;;;;;;;;;;;;;;;54201;1251;1003594;-81
2024/01/22 01:37:22;;;;;;;;;;;;;;;;;;54171;1255;1057205;-80
2024/01/22 01:39:48;;;;;;;;;;;;;;;;;;54212;1251;1003251;-81
2024/01/22 01:42:15;;;;;;;;;;;;;;;;;;53257;1255;1059020;-79
2024/01/22 01:44:41;;;;;;;;;;;;;;;;;;53033;1250;1004700;-80
2024/01/22 01:47:08;;;;;;;;;;;;;;;;;;53023;1254;1038198;-80
2024/01/22 01:49:34;;;;;;;;;;;;;;;;;;53033;1253;1004705;-81
2024/01/22 01:52:01;;;;;;;;;;;;;;;;;;52972;1256;1045625;-81
2024/01/22 01:54:27;;;;;;;;;;;;;;;;;;52945;1253;1005475;-81
2024/01/22 01:56:54;;;;;;;;;;;;;;;;;;52995;1253;1060764;-81
2024/01/22 01:59:20;;;;;;;;;;;;;;;;;;52988;1253;1003775;-81
2024/01/22 02:01:47;;;;;;;;;;;;;;;;;;52945;1253;1056604;-81
2024/01/22 02:04:13;;;;;;;;;;;;;;;;;;53000;1251;1005516;-81
2024/01/22 02:06:40;;;;;;;;;;;;;;;;;;52974;1253;1059334;-80
2024/01/22 02:09:07;;;;;;;;;;;;;;;;;;52968;1253;1005069;-81
2024/01/22 02:11:33;;;;;;;;;;;;;;;;;;52932;1253;1038724;-81
2024/01/22 02:14:00;;;;;;;;;;;;;;;;;;53015;1255;1005542;-81
2024/01/22 02:16:26;;;;;;;;;;;;;;;;;;53061;1251;1045965;-80
2024/01/22 02:18:53;;;;;;;;;;;;;;;;;;53007;1254;1003612;-79
2024/01/22 02:21:19;;;;;;;;;;;;;;;;;;53031;1253;1060903;-81
2024/01/22 02:23:46;;;;;;;;;;;;;;;;;;53045;1252;1005609;-79
2024/01/22 02:26:12;;;;;;;;;;;;;;;;;;52956;1253;1057659;-79
2024/01/22 02:28:39;;;;;;;;;;;;;;;;;;52993;1255;1004852;-81
2024/01/22 02:31:07;;;;;;;;;;;;;;;;;;52992;1251;1058667;-79
2024/01/22 02:33:33;;;;;;;;;;;;;;;;;;52921;1252;1004618;-79
2024/01/22 02:36:00;;;;;;;;;;;;;;;;;;53031;1252;1038693;-79
2024/01/22 02:38:26;;;;;;;;;;;;;;;;;;52969;1253;1005545;-82
2024/01/22 02:40:53;;;;;;;;;;;;;;;;;;53019;1252;1046131;-79
2024/01/22 02:43:19;;;;;;;;;;;;;;;;;;53039;1253;1005037;-81
2024/01/22 02:45:47;;;;;;;;;;;;;;;;;;53059;1251;1062689;-80
2024/01/22 02:48:13;;;;;;;;;;;;;;;;;;53033;1253;1005402;-81
2024/01/22 02:50:40;;;;;;;;;;;;;;;;;;53038;1253;1058367;-81
2024/01/22 02:53:06;;;;;;;;;;;;;;;;;;52985;1252;1005107;-79
2024/01/22 02:55:33;;;;;;;;;;;;;;;;;;52916;1255;1061139;-81
2024/01/22 02:58:00;;;;;;;;;;;;;;;;;;53001;1253;1005253;-81
2024/01/22 03:00:26;;;;;;;;;;;;;;;;;;53013;1253;1038507;-81
2024/01/22 03:02:53;;;;;;;;;;;;;;;;;;52896;1252;1004735;-81
2024/01/22 03:05:19;;;;;;;;;;;;;;;;;;52942;1253;1045012;-81
2024/01/22 03:07:46;;;;;;;;;;;;;;;;;;53008;1253;1004891;-81
2024/01/22 03:10:12;;;;;;;;;;;;;;;;;;52981;1255;1060455;-81
2024/01/22 03:12:39;;;;;;;;;;;;;;;;;;52980;1253;1003499;-79
2024/01/22 03:15:05;;;;;;;;;;;;;;;;;;53006;1254;1057764;-81
2024/01/22 03:17:32;;;;;;;;;;;;;;;;;;53037;1253;1005190;-81
2024/01/22 03:19:58;;;;;;;;;;;;;;;;;;53050;1253;1058257;-81
2024/01/22 03:22:25;;;;;;;;;;;;;;;;;;52970;1256;1005702;-80
2024/01/22 03:24:51;;;;;;;;;;;;;;;;;;52959;1253;1038712;-80
2024/01/22 03:27:18;;;;;;;;;;;;;;;;;;53010;1254;1004977;-80
2024/01/22 03:29:44;;;;;;;;;;;;;;;;;;53095;1251;1046571;-81
2024/01/22 03:32:11;;;;;;;;;;;;;;;;;;52965;1253;1004821;-81
2024/01/22 03:34:37;;;;;;;;;;;;;;;;;;53070;1253;1063918;-80
2024/01/22 03:37:04;;;;;;;;;;;;;;;;;;53054;1253;1005577;-82
2024/01/22 03:39:31;;;;;;;;;;;;;;;;;;52991;1256;1057373;-79
2024/01/22 03:41:58;;;;;;;;;;;;;;;;;;53037;1251;1005258;-81
2024/01/22 03:44:24;;;;;;;;;;;;;;;;;;53021;1253;1058236;-81
2024/01/22 03:46:51;;;;;;;;;;;;;;;;;;52993;1253;1003605;-80
2024/01/22 03:49:17;;;;;;;;;;;;;;;;;;52960;1255;1038766;-80
2024/01/22 03:51:44;;;;;;;;;;;;;;;;;;52974;1253;1005355;-81
2024/01/22 03:54:10;;;;;;;;;;;;;;;;;;52998;1252;1046185;-80
2024/01/22 03:56:37;;;;;;;;;;;;;;;;;;52905;1255;1005551;-81
2024/01/22 03:59:04;;;;;;;;;;;;;;;;;;52988;1253;1063870;-80
2024/01/22 04:01:30;;;;;;;;;;;;;;;;;;52990;1253;1004908;-80
2024/01/22 04:03:57;;;;;;;;;;;;;;;;;;52985;1253;1057460;-80
2024/01/22 04:06:23;;;;;;;;;;;;;;;;;;52943;1255;1005039;-83
2024/01/22 04:08:50;;;;;;;;;;;;;;;;;;52994;1253;1058000;-80
2024/01/22 04:11:17;;;;;;;;;;;;;;;;;;52991;1252;1005036;-79
2024/01/22 04:13:44;;;;;;;;;;;;;;;;;;53017;1255;1038760;-79
2024/01/22 04:16:10;;;;;;;;;;;;;;;;;;53043;1254;1005364;-81
2024/01/22 04:18:37;;;;;;;;;;;;;;;;;;53036;1252;1045465;-81
2024/01/22 04:21:04;;;;;;;;;;;;;;;;;;53039;1252;1005206;-81
2024/01/22 04:23:30;;;;;;;;;;;;;;;;;;53010;1251;1061550;-79
2024/01/22 04:25:57;;;;;;;;;;;;;;;;;;53019;1255;1003772;-81
2024/01/22 04:28:23;;;;;;;;;;;;;;;;;;52979;1253;1056384;-81
2024/01/22 04:30:50;;;;;;;;;;;;;;;;;;53027;1251;1005119;-80
2024/01/22 04:33:16;;;;;;;;;;;;;;;;;;53036;1254;1058380;-79
2024/01/22 04:35:43;;;;;;;;;;;;;;;;;;53025;1255;1005341;-80
2024/01/22 04:38:09;;;;;;;;;;;;;;;;;;52956;1255;1037783;-80
2024/01/22 04:40:36;;;;;;;;;;;;;;;;;;52963;1255;1005432;-80
2024/01/22 04:43:03;;;;;;;;;;;;;;;;;;53015;1250;1045594;-79
2024/01/22 04:45:29;;;;;;;;;;;;;;;;;;52953;1256;1005211;-81
2024/01/22 04:47:56;;;;;;;;;;;;;;;;;;52978;1253;1061683;-81
2024/01/22 04:50:23;;;;;;;;;;;;;;;;;;52972;1251;1005467;-80
2024/01/22 04:52:50;;;;;;;;;;;;;;;;;;52988;1254;1057258;-79
2024/01/22 04:55:16;;;;;;;;;;;;;;;;;;53860;1251;1003663;-81
2024/01/22 04:57:42;;;;;;;;;;;;;;;;;;54165;1252;1057630;-80
2024/01/22 05:00:09;;;;;;;;;;;;;;;;;;53363;1251;1004883;-79
2024/01/22 05:02:37;;;;;;;;;;;;;;;;;;52966;1251;1038784;-81
2024/01/22 05:05:04;;;;;;;;;;;;;;;;;;53016;1255;1005251;-80
2024/01/22 05:07:30;;;;;;;;;;;;;;;;;;52985;1254;1003768;-81
2024/01/22 05:09:57;;;;;;;;;;;;;;;;;;53018;1251;1044975;-81
2024/01/22 05:12:24;;;;;;;;;;;;;;;;;;53017;1253;1005423;-79
2024/01/22 05:14:51;;;;;;;;;;;;;;;;;;53053;1252;1060716;-81
2024/01/22 05:17:17;;;;;;;;;;;;;;;;;;54192;1251;1003360;-80
2024/01/22 05:19:44;;;;;;;;;;;;;;;;;;54197;1251;1057463;-81
2024/01/22 05:22:10;;;;;;;;;;;;;;;;;;54207;1251;1003105;-80
2024/01/22 05:24:37;;;;;;;;;;;;;;;;;;53947;1251;1058306;-79
2024/01/22 05:27:04;;;;;;;;;;;;;;;;;;52921;1251;1003741;-81
2024/01/22 05:29:31;;;;;;;;;;;;;;;;;;52966;1251;1037927;-81
2024/01/22 05:31:57;;;;;;;;;;;;;;;;;;52936;1255;1005239;-81
2024/01/22 05:34:24;;;;;;;;;;;;;;;;;;52945;1250;1045506;-81
2024/01/22 05:36:50;;;;;;;;;;;;;;;;;;53020;1252;1005355;-81
2024/01/22 05:39:18;;;;;;;;;;;;;;;;;;53040;1252;1063737;-81
2024/01/22 05:41:45;;;;;;;;;;;;;;;;;;53254;1255;1005126;-80
2024/01/22 05:44:11;;;;;;;;;;;;;;;;;;53059;1253;1057051;-79
2024/01/22 05:46:38;;;;;;;;;;;;;;;;;;53045;1251;1005075;-80
2024/01/22 05:49:04;;;;;;;;;;;;;;;;;;53021;1253;1058824;-79
2024/01/22 05:51:31;;;;;;;;;;;;;;;;;;52978;1253;1005346;-80
2024/01/22 05:53:57;;;;;;;;;;;;;;;;;;52994;1253;1037726;-79
2024/01/22 05:56:27;;;;;;;;;;;;;;;;;;52934;1255;1005319;-81
2024/01/22 05:58:53;;;;;;;;;;;;;;;;;;53061;1253;1045232;-80
2024/01/22 06:01:20;;;;;;;;;;;;;;;;;;53052;1254;1005215;-81
2024/01/22 06:03:46;;;;;;;;;;;;;;;;;;52977;1253;1061490;-81
2024/01/22 06:06:13;;;;;;;;;;;;;;;;;;53034;1252;1005477;-81
2024/01/22 06:08:40;;;;;;;;;;;;;;;;;;53042;1254;1056843;-82
2024/01/22 06:11:06;;;;;;;;;;;;;;;;;;53026;1251;1005611;-80
2024/01/22 06:13:33;;;;;;;;;;;;;;;;;;53004;1264;1058238;-79
2024/01/22 06:15:59;;;;;;;;;;;;;;;;;;53043;1253;1003651;-81
2024/01/22 06:18:25;;;;;;;;;;;;;;;;;;53042;1264;1040962;-81
2024/01/22 06:20:52;;;;;;;;;;;;;;;;;;53031;1254;1005493;-79
2024/01/22 06:23:19;;;;;;;;;;;;;;;;;;53017;1254;1045372;-80
2024/01/22 06:25:45;;;;;;;;;;;;;;;;;;53014;1254;1005542;-79
2024/01/22 06:28:12;;;;;;;;;;;;;;;;;;53011;1253;1061479;-82
2024/01/22 06:30:38;;;;;;;;;;;;;;;;;;53029;1251;1004898;-80
2024/01/22 06:33:05;;;;;;;;;;;;;;;;;;53061;1250;1057311;-81
2024/01/22 06:35:32;;;;;;;;;;;;;;;;;;52931;1251;1004661;-80
2024/01/22 06:37:58;;;;;;;;;;;;;;;;;;53032;1251;1057691;-79
2024/01/22 06:40:24;;;;;;;;;;;;;;;;;;53094;1256;1005071;-80
2024/01/22 06:42:51;;;;;;;;;;;;;;;;;;53055;1253;1039037;-81
2024/01/22 06:45:17;;;;;;;;;;;;;;;;;;53043;1254;1005564;-81
2024/01/22 06:47:44;;;;;;;;;;;;;;;;;;53046;1254;1045498;-81
2024/01/22 06:50:10;;;;;;;;;;;;;;;;;;53046;1251;1005230;-80
2024/01/22 06:52:37;;;;;;;;;;;;;;;;;;53129;1251;1060969;-81
2024/01/22 06:55:03;;;;;;;;;;;;;;;;;;53052;1251;1005311;-79
2024/01/22 06:57:30;;;;;;;;;;;;;;;;;;53058;1255;1057404;-79
2024/01/22 06:59:56;;;;;;;;;;;;;;;;;;53079;1263;1005384;-81
2024/01/22 07:02:26;;;;;;;;;;;;;;;;;;53085;1253;1058651;-81
2024/01/22 07:04:52;;;;;;;;;;;;;;;;;;53489;1256;1005442;-81
2024/01/22 07:07:19;;;;;;;;;;;;;;;;;;53060;1254;1005311;-81
2024/01/22 07:09:45;;;;;;;;;;;;;;;;;;53019;1254;1038432;-81
2024/01/22 07:12:12;;;;;;;;;;;;;;;;;;53187;1251;1005553;-79
2024/01/22 07:14:39;;;;;;;;;;;;;;;;;;53207;1257;1045716;-82
2024/01/22 07:17:05;;;;;;;;;;;;;;;;;;54151;1254;1003381;-80
2024/01/22 07:19:32;;;;;;;;;;;;;;;;;;54102;1251;1060562;-80
2024/01/22 07:21:58;;;;;;;;;;;;;;;;;;54099;1251;1003333;-80
2024/01/22 07:24:25;;;;;;;;;;;;;;;;;;54121;1254;1057239;-81
2024/01/22 07:26:52;;;;;;;;;;;;;;;;;;54114;1255;1003521;-82
2024/01/22 07:29:18;;;;;;;;;;;;;;;;;;54116;1255;1057926;-80
2024/01/22 07:31:45;;;;;;;;;;;;;;;;;;53737;1252;1003526;-79
2024/01/22 07:34:11;;;;;;;;;;;;;;;;;;53118;1251;1038649;-81
2024/01/22 07:36:38;;;;;;;;;;;;;;;;;;53091;1254;1004025;-81
2024/01/22 07:39:04;;;;;;;;;;;;;;;;;;53064;1251;1047371;-79
2024/01/22 07:41:31;;;;;;;;;;;;;;;;;;53202;1256;1005295;-79
2024/01/22 07:43:57;;;;;;;;;;;;;;;;;;53121;1254;1060625;-81
2024/01/22 07:46:24;;;;;;;;;;;;;;;;;;53116;1253;1005404;-81
2024/01/22 07:48:52;;;;;;;;;;;;;;;;;;53159;1256;1057783;-79
2024/01/22 07:51:19;;;;;;;;;;;;;;;;;;53168;1253;1004959;-80
2024/01/22 07:53:45;;;;;;;;;;;;;;;;;;53094;1252;1058162;-80
2024/01/22 07:56:12;;;;;;;;;;;;;;;;;;53049;1254;1005304;-81
2024/01/22 07:58:39;;;;;;;;;;;;;;;;;;53112;1257;1038509;-79
2024/01/22 08:01:06;;;;;;;;;;;;;;;;;;53198;1251;1005490;-81
2024/01/22 08:03:32;;;;;;;;;;;;;;;;;;53166;1257;1046307;-81
2024/01/22 08:05:59;;;;;;;;;;;;;;;;;;53210;1251;1005713;-81
2024/01/22 08:08:25;;;;;;;;;;;;;;;;;;53211;1251;1060489;-80
2024/01/22 08:10:52;;;;;;;;;;;;;;;;;;53137;1254;1005406;-81
2024/01/22 08:13:18;;;;;;;;;;;;;;;;;;53153;1256;1056222;-80
2024/01/22 08:15:45;;;;;;;;;;;;;;;;;;53112;1251;1004661;-80
2024/01/22 08:18:12;;;;;;;;;;;;;;;;;;53114;1254;1057691;-80
2024/01/22 08:20:38;;;;;;;;;;;;;;;;;;53219;1251;1005362;-81
2024/01/22 08:23:05;;;;;;;;;;;;;;;;;;53303;1251;1039246;-79
2024/01/22 08:25:31;;;;;;;;;;;;;;;;;;53102;1251;1005452;-82
2024/01/22 08:28:01;;;;;;;;;;;;;;;;;;53095;1254;1046401;-79
2024/01/22 08:30:27;;;;;;;;;;;;;;;;;;53134;1257;1005163;-79
2024/01/22 08:32:54;;;;;;;;;;;;;;;;;;53235;1251;1004296;-82
2024/01/22 08:35:21;;;;;;;;;;;;;;;;;;53225;1251;1061349;-79
2024/01/22 08:37:52;;;;;;;;;;;;;;;;;;53045;1251;1005278;-81
2024/01/22 08:40:21;;;;;;;;;;;;;;;;;;53201;1250;1056849;-80
2024/01/22 08:42:49;;;;;;;;;;;;;;;;;;53228;1254;1005104;-82
2024/01/22 08:45:15;;;;;;;;;;;;;;;;;;53211;1251;1005512;-79
2024/01/22 08:47:44;;;;;;;;;;;;;;;;;;53121;1253;1057519;-80
2024/01/22 08:50:11;;;;;;;;;;;;;;;;;;53213;1254;1003713;-80
2024/01/22 08:52:37;;;;;;;;;;;;;;;;;;53240;1254;1005339;-82
2024/01/22 08:55:05;;;;;;;;;;;;;;;;;;53154;1251;1038483;-80
2024/01/22 08:57:31;;;;;;;;;;;;;;;;;;53115;1251;1004908;-82
2024/01/22 08:59:58;;;;;;;;;;;;;;;;;;53406;1251;1046019;-80
2024/01/22 09:02:24;;;;;;;;;;;;;;;;;;53406;1251;1003930;-82
2024/01/22 09:07:36;;;;;;;;;;;;;;;;;;53355;1251;1061427;-83
2024/01/22 09:10:05;;;;;;;;;;;;;;;;;;53520;1251;1003688;-81
2024/01/22 09:12:31;;;;;;;;;;;;;;;;;;53414;1251;1057289;-81
2024/01/22 09:14:58;;;;;;;;;;;;;;;;;;53451;1254;1005314;-80
2024/01/22 09:17:25;;;;;;;;;;;;;;;;;;53382;1251;1057980;-82
2024/01/22 09:19:52;;;;;;;;;;;;;;;;;;53517;1252;1003887;-79
2024/01/22 09:22:21;;;;;;;;;;;;;;;;;;53151;1254;1039495;-81
2024/01/22 09:24:48;;;;;;;;;;;;;;;;;;53184;1254;1005654;-81
2024/01/22 09:27:14;;;;;;;;;;;;;;;;;;53110;1251;1004745;-81
2024/01/22 09:29:41;;;;;;;;;;;;;;;;;;53185;1251;1045298;-79
2024/01/22 09:32:08;;;;;;;;;;;;;;;;;;53183;1251;1005669;-81
2024/01/22 09:34:34;;;;;;;;;;;;;;;;;;53325;1257;1062210;-78
2024/01/22 09:37:01;;;;;;;;;;;;;;;;;;53166;1251;1005455;-79
2024/01/22 09:39:27;;;;;;;;;;;;;;;;;;53220;1253;1057249;-79
2024/01/22 09:41:54;;;;;;;;;;;;;;;;;;53199;1251;1004798;-79
2024/01/22 09:44:20;;;;;;;;;;;;;;;;;;53151;1251;1057367;-79
2024/01/22 09:46:47;;;;;;;;;;;;;;;;;;53086;1251;1005517;-81
2024/01/22 09:49:13;;;;;;;;;;;;;;;;;;53087;1254;1040958;-81
2024/01/22 09:51:40;;;;;;;;;;;;;;;;;;53109;1254;1005401;-79
2024/01/22 09:54:09;;;;;;;;;;;;;;;;;;53123;1251;1047863;-81
2024/01/22 09:56:36;;;;;;;;;;;;;;;;;;53135;1249;1005141;-79
2024/01/22 09:59:03;;;;;;;;;;;;;;;;;;53123;1254;1004911;-79
2024/01/22 10:01:29;;;;;;;;;;;;;;;;;;53355;1251;1061557;-79
2024/01/22 10:03:57;;;;;;;;;;;;;;;;;;54174;1250;1003246;-81
2024/01/22 10:06:23;;;;;;;;;;;;;;;;;;54149;1250;1056879;-80
2024/01/22 10:08:50;;;;;;;;;;;;;;;;;;54147;1250;1003191;-80
2024/01/22 10:11:16;;;;;;;;;;;;;;;;;;54149;1251;1057435;-81
2024/01/22 10:13:43;;;;;;;;;;;;;;;;;;54146;1256;1003496;-80
2024/01/22 10:16:10;;;;;;;;;;;;;;;;;;54141;1251;1038433;-79
2024/01/22 10:18:37;;;;;;;;;;;;;;;;;;54097;1251;1003419;-79
2024/01/22 10:21:04;;;;;;;;;;;;;;;;;;54119;1251;1045682;-79
2024/01/22 10:23:31;;;;;;;;;;;;;;;;;;54127;1251;1003243;-80
2024/01/22 10:25:58;;;;;;;;;;;;;;;;;;54094;1252;1060486;-81
2024/01/22 10:28:24;;;;;;;;;;;;;;;;;;54149;1251;1003438;-80
2024/01/22 10:30:51;;;;;;;;;;;;;;;;;;54113;1251;1057075;-80
2024/01/22 10:33:17;;;;;;;;;;;;;;;;;;54111;1251;1003407;-82
2024/01/22 10:35:44;;;;;;;;;;;;;;;;;;54116;1251;1057320;-80
2024/01/22 10:38:10;;;;;;;;;;;;;;;;;;54054;1257;1003512;-81
2024/01/22 10:40:37;;;;;;;;;;;;;;;;;;54076;1251;1038443;-81
2024/01/22 10:43:03;;;;;;;;;;;;;;;;;;54128;1250;1003541;-80
2024/01/22 10:45:30;;;;;;;;;;;;;;;;;;54105;1253;1046757;-81
2024/01/22 10:47:56;;;;;;;;;;;;;;;;;;54083;1251;1003411;-79
2024/01/22 10:50:22;;;;;;;;;;;;;;;;;;54129;1252;1061422;-81
2024/01/22 10:52:49;;;;;;;;;;;;;;;;;;54117;1252;1003173;-81
2024/01/22 10:55:15;;;;;;;;;;;;;;;;;;53401;1251;1057667;-82
2024/01/22 10:57:43;;;;;;;;;;;;;;;;;;53097;1251;1004738;-79
2024/01/22 11:00:09;;;;;;;;;;;;;;;;;;53082;1253;1059056;-80
2024/01/22 11:02:36;;;;;;;;;;;;;;;;;;53022;1254;1005485;-79
2024/01/22 11:05:03;;;;;;;;;;;;;;;;;;53611;1251;1038013;-79
2024/01/22 11:07:29;;;;;;;;;;;;;;;;;;53498;1254;1003754;-81
2024/01/22 11:09:56;;;;;;;;;;;;;;;;;;53133;1253;1046053;-81
2024/01/22 11:12:22;;;;;;;;;;;;;;;;;;53170;1251;1006428;-78
2024/01/22 11:14:49;;;;;;;;;;;;;;;;;;53053;1252;1061437;-80
2024/01/22 11:17:17;;;;;;;;;;;;;;;;;;53127;1255;1003709;-82
2024/01/22 11:19:43;;;;;;;;;;;;;;;;;;53162;1251;1057459;-81
2024/01/22 11:22:09;;;;;;;;;;;;;;;;;;53041;1251;1005004;-81
2024/01/22 11:24:36;;;;;;;;;;;;;;;;;;53016;1251;1059192;-80
2024/01/22 11:27:03;;;;;;;;;;;;;;;;;;53063;1252;1005468;-81
2024/01/22 11:29:30;;;;;;;;;;;;;;;;;;53051;1250;1038806;-81
2024/01/22 11:31:56;;;;;;;;;;;;;;;;;;53070;1251;1005375;-79
2024/01/22 11:34:22;;;;;;;;;;;;;;;;;;53093;1251;1046738;-79
2024/01/22 11:36:49;;;;;;;;;;;;;;;;;;53091;1251;1003706;-79
2024/01/22 11:39:16;;;;;;;;;;;;;;;;;;53102;1251;1062157;-79
2024/01/22 11:41:42;;;;;;;;;;;;;;;;;;53123;1251;1004779;-81
2024/01/22 11:44:09;;;;;;;;;;;;;;;;;;53226;1251;1057293;-81
2024/01/22 11:46:35;;;;;;;;;;;;;;;;;;53076;1251;1005451;-81
2024/01/22 11:49:02;;;;;;;;;;;;;;;;;;53026;1254;1058208;-81
2024/01/22 11:51:28;;;;;;;;;;;;;;;;;;53153;1251;1004757;-80
2024/01/22 11:53:56;;;;;;;;;;;;;;;;;;53042;1251;1038541;-81
2024/01/22 11:56:22;;;;;;;;;;;;;;;;;;53067;1251;1005514;-81
2024/01/22 11:58:49;;;;;;;;;;;;;;;;;;53054;1251;1045503;-79
2024/01/22 12:01:15;;;;;;;;;;;;;;;;;;53220;1251;1004843;-81
2024/01/22 12:03:42;;;;;;;;;;;;;;;;;;52981;1251;1062577;-81
2024/01/22 12:06:08;;;;;;;;;;;;;;;;;;53007;1251;1004971;-79
2024/01/22 12:08:35;;;;;;;;;;;;;;;;;;52995;1254;1057136;-79
2024/01/22 12:11:01;;;;;;;;;;;;;;;;;;53093;1251;1005190;-80
2024/01/22 12:13:28;;;;;;;;;;;;;;;;;;53019;1251;1058935;-81
2024/01/22 12:15:54;;;;;;;;;;;;;;;;;;53029;1251;1005531;-80
2024/01/22 12:18:21;;;;;;;;;;;;;;;;;;52983;1251;1039073;-79
2024/01/22 12:20:47;;;;;;;;;;;;;;;;;;53020;1251;1005561;-79
2024/01/22 12:23:14;;;;;;;;;;;;;;;;;;53103;1253;1045179;-81
2024/01/22 12:25:40;;;;;;;;;;;;;;;;;;53464;1251;1005298;-79
2024/01/22 12:28:07;;;;;;;;;;;;;;;;;;53103;1251;1061255;-79
2024/01/22 12:30:34;;;;;;;;;;;;;;;;;;53983;1252;1003747;-79
2024/01/22 12:33:00;;;;;;;;;;;;;;;;;;53196;1251;1057075;-80
2024/01/22 12:35:27;;;;;;;;;;;;;;;;;;53133;1251;1004985;-80
2024/01/22 12:37:54;;;;;;;;;;;;;;;;;;52947;1251;1057446;-78
2024/01/22 12:40:23;;;;;;;;;;;;;;;;;;53022;1251;1004610;-78
2024/01/22 12:42:49;;;;;;;;;;;;;;;;;;53042;1251;1038109;-79
2024/01/22 12:45:16;;;;;;;;;;;;;;;;;;52942;1251;1005321;-80
2024/01/22 12:47:42;;;;;;;;;;;;;;;;;;53058;1251;1045138;-79
2024/01/22 12:50:09;;;;;;;;;;;;;;;;;;53111;1251;1005184;-80
2024/01/22 12:52:35;;;;;;;;;;;;;;;;;;53073;1251;1064323;-79
2024/01/22 12:55:02;;;;;;;;;;;;;;;;;;52997;1251;1005592;-79
2024/01/22 12:57:28;;;;;;;;;;;;;;;;;;53329;1250;1058315;-80
2024/01/22 12:59:55;;;;;;;;;;;;;;;;;;52989;1251;1005270;-80
2024/01/22 13:02:21;;;;;;;;;;;;;;;;;;52980;1253;1058056;-80
2024/01/22 13:04:49;;;;;;;;;;;;;;;;;;52966;1254;1004832;-79
2024/01/22 13:07:16;;;;;;;;;;;;;;;;;;52963;1251;1039366;-79
2024/01/22 13:09:43;;;;;;;;;;;;;;;;;;52974;1251;1004840;-81
2024/01/22 13:12:09;;;;;;;;;;;;;;;;;;52956;1253;1045221;-80
2024/01/22 13:14:36;;;;;;;;;;;;;;;;;;52997;1251;1005448;-79
2024/01/22 13:17:04;;;;;;;;;;;;;;;;;;52943;1251;1060991;-79
2024/01/22 13:19:31;;;;;;;;;;;;;;;;;;53016;1253;1005282;-80
2024/01/22 13:21:58;;;;;;;;;;;;;;;;;;53086;1251;1057076;-79
2024/01/22 13:24:25;;;;;;;;;;;;;;;;;;53082;1251;1005138;-79
2024/01/22 13:26:52;;;;;;;;;;;;;;;;;;52909;1251;1057776;-79
2024/01/22 13:29:18;;;;;;;;;;;;;;;;;;53020;1254;1005404;-81
2024/01/22 13:31:45;;;;;;;;;;;;;;;;;;53064;1251;1038290;-80
2024/01/22 13:34:12;;;;;;;;;;;;;;;;;;53087;1251;1005519;-79
2024/01/22 13:36:38;;;;;;;;;;;;;;;;;;53009;1254;1045823;-79
2024/01/22 13:39:06;;;;;;;;;;;;;;;;;;53060;1251;1005209;-80
2024/01/22 13:41:32;;;;;;;;;;;;;;;;;;53065;1251;1063546;-79
2024/01/22 13:43:59;;;;;;;;;;;;;;;;;;52992;1251;1005102;-80
2024/01/22 13:46:25;;;;;;;;;;;;;;;;;;52938;1253;1057809;-81
2024/01/22 13:48:52;;;;;;;;;;;;;;;;;;53032;1251;1003744;-80
2024/01/22 13:51:19;;;;;;;;;;;;;;;;;;53070;1254;1058620;-78
2024/01/22 13:53:46;;;;;;;;;;;;;;;;;;53031;1251;1004867;-80
2024/01/22 13:56:12;;;;;;;;;;;;;;;;;;53100;1251;1038961;-80
2024/01/22 13:58:43;;;;;;;;;;;;;;;;;;52967;1251;1005218;-79
2024/01/22 14:01:09;;;;;;;;;;;;;;;;;;53039;1251;1045116;-80
2024/01/22 14:03:36;;;;;;;;;;;;;;;;;;53087;1251;1005281;-79
2024/01/22 14:06:02;;;;;;;;;;;;;;;;;;53108;1251;1064078;-80
2024/01/22 14:08:29;;;;;;;;;;;;;;;;;;53060;1251;1003586;-79
2024/01/22 14:10:55;;;;;;;;;;;;;;;;;;53238;1250;1056739;-79
2024/01/22 14:13:22;;;;;;;;;;;;;;;;;;53169;1252;1005518;-78
2024/01/22 14:15:48;;;;;;;;;;;;;;;;;;53075;1254;1058124;-80
2024/01/22 14:18:15;;;;;;;;;;;;;;;;;;53144;1251;1004995;-79
2024/01/22 14:20:41;;;;;;;;;;;;;;;;;;53178;1251;1039451;-79
2024/01/22 14:23:08;;;;;;;;;;;;;;;;;;53205;1254;1004937;-79
2024/01/22 14:25:37;;;;;;;;;;;;;;;;;;53124;1251;1046587;-79
2024/01/22 14:28:04;;;;;;;;;;;;;;;;;;53144;1251;1004770;-79
2024/01/22 14:30:30;;;;;;;;;;;;;;;;;;53205;1251;1004921;-79
2024/01/22 14:32:57;;;;;;;;;;;;;;;;;;53042;1252;1061268;-79
2024/01/22 14:35:27;;;;;;;;;;;;;;;;;;52927;1251;1005524;-80
2024/01/22 14:37:53;;;;;;;;;;;;;;;;;;52970;1251;1057469;-80
2024/01/22 14:40:20;;;;;;;;;;;;;;;;;;53031;1251;1004879;-79
2024/01/22 14:42:47;;;;;;;;;;;;;;;;;;52954;1251;1057643;-80
2024/01/22 14:45:13;;;;;;;;;;;;;;;;;;52936;1253;1004892;-79
2024/01/22 14:47:40;;;;;;;;;;;;;;;;;;52981;1251;1038546;-79
2024/01/22 14:50:06;;;;;;;;;;;;;;;;;;53097;1254;1005356;-80
2024/01/22 14:52:32;;;;;;;;;;;;;;;;;;53192;1251;1045207;-80
2024/01/22 14:54:59;;;;;;;;;;;;;;;;;;53113;1251;1005362;-79
2024/01/22 14:57:26;;;;;;;;;;;;;;;;;;53151;1251;1061536;-79
2024/01/22 14:59:52;;;;;;;;;;;;;;;;;;53145;1251;1004722;-80
2024/01/22 15:02:21;;;;;;;;;;;;;;;;;;53058;1251;1058115;-80
2024/01/22 15:04:49;;;;;;;;;;;;;;;;;;53080;1251;1005599;-80
2024/01/22 15:07:15;;;;;;;;;;;;;;;;;;52845;1251;1005373;-78
2024/01/22 15:09:42;;;;;;;;;;;;;;;;;;52986;1251;1058099;-79
2024/01/22 15:12:08;;;;;;;;;;;;;;;;;;53019;1253;1005104;-80
2024/01/22 15:14:35;;;;;;;;;;;;;;;;;;52975;1251;1039136;-79
2024/01/22 15:17:02;;;;;;;;;;;;;;;;;;52848;1252;1005486;-79
2024/01/22 15:19:28;;;;;;;;;;;;;;;;;;53159;1253;1045871;-79
2024/01/22 15:21:55;;;;;;;;;;;;;;;;;;53103;1253;1005127;-81
2024/01/22 15:24:22;;;;;;;;;;;;;;;;;;53089;1252;1061396;-82
2024/01/22 15:26:49;;;;;;;;;;;;;;;;;;53009;1252;1004803;-82
2024/01/22 15:29:15;;;;;;;;;;;;;;;;;;52946;1252;1056764;-82
2024/01/22 15:31:42;;;;;;;;;;;;;;;;;;52873;1253;1004818;-78
2024/01/22 15:34:08;;;;;;;;;;;;;;;;;;52889;1253;1058316;-78
2024/01/22 15:36:35;;;;;;;;;;;;;;;;;;52844;1255;1005426;-79
2024/01/22 15:39:03;;;;;;;;;;;;;;;;;;52863;1252;1038344;-80
2024/01/22 15:41:30;;;;;;;;;;;;;;;;;;52861;1252;1004742;-80
2024/01/22 15:43:57;;;;;;;;;;;;;;;;;;52833;1251;1005060;-79
2024/01/22 15:46:23;;;;;;;;;;;;;;;;;;52792;1252;1045093;-79
2024/01/22 15:48:50;;;;;;;;;;;;;;;;;;52799;1252;1005020;-78
2024/01/22 15:51:16;;;;;;;;;;;;;;;;;;52865;1255;1061129;-78
2024/01/22 15:53:43;;;;;;;;;;;;;;;;;;52792;1251;1003788;-80
2024/01/22 15:56:09;;;;;;;;;;;;;;;;;;52737;1253;1057392;-80
2024/01/22 15:58:36;;;;;;;;;;;;;;;;;;52740;1253;1005382;-80
2024/01/22 16:01:03;;;;;;;;;;;;;;;;;;52726;1253;1058397;-80
2024/01/22 16:03:30;;;;;;;;;;;;;;;;;;52627;1253;1004898;-80
2024/01/22 16:05:57;;;;;;;;;;;;;;;;;;52816;1252;1038682;-78
2024/01/22 16:08:23;;;;;;;;;;;;;;;;;;52762;1252;1004910;-79
2024/01/22 16:10:50;;;;;;;;;;;;;;;;;;53336;1252;1045004;-79